sensor_id;sensor_type;location;lat;lon;timestamp;P1;durP1;ratioP1;P2;durP2;ratioP2
46607;SDS011;32330;51.936;7.184;2023-10-31T04:47:57;16.58;;;14.85;;
46607;SDS011;32330;51.936;7.184;2023-10-31T04:50:33;17.75;;;14.02;;
46607;SDS011;32330;51.936;7.184;2023-10-31T04:53:00;16.92;;;14.25;;
46607;SDS011;32330;51.936;7.184;2023-10-31T04:55:27;18.95;;;16.83;;
46607;SDS011;32330;51.936;7.184;2023-10-31T04:57:53;18.23;;;15.00;;
46607;SDS011;32330;51.936;7.184;2023-10-31T05:00:20;23.95;;;17.23;;
46607;SDS011;32330;51.936;7.184;2023-10-31T05:02:47;19.05;;;17.10;;
46607;SDS011;32330;51.936;7.184;2023-10-31T05:05:15;19.73;;;17.10;;
46607;SDS011;32330;51.936;7.184;2023-10-31T05:07:42;18.65;;;16.73;;
46607;SDS011;32330;51.936;7.184;2023-10-31T05:10:09;19.88;;;16.50;;
46607;SDS011;32330;51.936;7.184;2023-10-31T05:12:36;18.73;;;16.02;;
46607;SDS011;32330;51.936;7.184;2023-10-31T05:15:03;17.35;;;13.10;;
46607;SDS011;32330;51.936;7.184;2023-10-31T05:17:31;16.88;;;14.45;;
46607;SDS011;32330;51.936;7.184;2023-10-31T05:19:58;16.20;;;11.98;;
46607;SDS011;32330;51.936;7.184;2023-10-31T05:22:26;14.55;;;12.55;;
46607;SDS011;32330;51.936;7.184;2023-10-31T05:24:53;13.52;;;11.52;;
46607;SDS011;32330;51.936;7.184;2023-10-31T05:27:20;14.98;;;13.40;;
46607;SDS011;32330;51.936;7.184;2023-10-31T05:29:47;15.35;;;13.45;;
46607;SDS011;32330;51.936;7.184;2023-10-31T05:32:14;14.73;;;13.23;;
46607;SDS011;32330;51.936;7.184;2023-10-31T05:34:42;15.32;;;13.73;;
46607;SDS011;32330;51.936;7.184;2023-10-31T05:37:09;15.70;;;13.13;;
46607;SDS011;32330;51.936;7.184;2023-10-31T05:39:37;15.85;;;13.95;;
46607;SDS011;32330;51.936;7.184;2023-10-31T05:42:04;17.88;;;13.88;;
46607;SDS011;32330;51.936;7.184;2023-10-31T05:44:31;14.95;;;12.98;;
46607;SDS011;32330;51.936;7.184;2023-10-31T05:46:58;14.75;;;12.55;;
46607;SDS011;32330;51.936;7.184;2023-10-31T05:49:25;14.95;;;12.38;;
46607;SDS011;32330;51.936;7.184;2023-10-31T05:51:52;13.20;;;11.65;;
46607;SDS011;32330;51.936;7.184;2023-10-31T05:54:19;12.80;;;11.05;;
46607;SDS011;32330;51.936;7.184;2023-10-31T05:56:47;13.25;;;10.00;;
46607;SDS011;32330;51.936;7.184;2023-10-31T05:59:14;10.80;;;9.70;;
46607;SDS011;32330;51.936;7.184;2023-10-31T06:01:41;10.68;;;8.57;;
46607;SDS011;32330;51.936;7.184;2023-10-31T06:04:08;9.00;;;8.00;;
46607;SDS011;32330;51.936;7.184;2023-10-31T06:06:37;9.90;;;7.93;;
46607;SDS011;32330;51.936;7.184;2023-10-31T06:09:04;8.50;;;7.57;;
46607;SDS011;32330;51.936;7.184;2023-10-31T06:11:31;8.80;;;6.68;;
46607;SDS011;32330;51.936;7.184;2023-10-31T06:13:59;8.50;;;7.05;;
46607;SDS011;32330;51.936;7.184;2023-10-31T06:16:27;9.02;;;7.38;;
46607;SDS011;32330;51.936;7.184;2023-10-31T06:18:55;7.93;;;6.72;;
46607;SDS011;32330;51.936;7.184;2023-10-31T06:21:23;7.72;;;5.43;;
46607;SDS011;32330;51.936;7.184;2023-10-31T06:23:50;6.65;;;5.40;;
46607;SDS011;32330;51.936;7.184;2023-10-31T06:26:17;6.35;;;5.53;;
46607;SDS011;32330;51.936;7.184;2023-10-31T06:28:44;6.88;;;5.32;;
46607;SDS011;32330;51.936;7.184;2023-10-31T06:31:12;5.35;;;4.85;;
46607;SDS011;32330;51.936;7.184;2023-10-31T06:33:39;5.50;;;4.38;;
46607;SDS011;32330;51.936;7.184;2023-10-31T06:36:06;4.90;;;3.70;;
46607;SDS011;32330;51.936;7.184;2023-10-31T06:38:34;4.53;;;4.10;;
46607;SDS011;32330;51.936;7.184;2023-10-31T06:41:01;4.80;;;4.05;;
46607;SDS011;32330;51.936;7.184;2023-10-31T06:43:28;6.32;;;4.50;;
46607;SDS011;32330;51.936;7.184;2023-10-31T06:45:55;10.25;;;4.97;;
46607;SDS011;32330;51.936;7.184;2023-10-31T06:48:23;5.88;;;4.43;;
46607;SDS011;32330;51.936;7.184;2023-10-31T06:50:50;6.22;;;4.63;;
46607;SDS011;32330;51.936;7.184;2023-10-31T06:53:17;7.55;;;4.95;;
46607;SDS011;32330;51.936;7.184;2023-10-31T06:55:44;5.30;;;4.25;;
46607;SDS011;32330;51.936;7.184;2023-10-31T06:58:11;6.63;;;5.20;;
46607;SDS011;32330;51.936;7.184;2023-10-31T07:00:38;8.30;;;4.93;;
46607;SDS011;32330;51.936;7.184;2023-10-31T07:03:04;6.90;;;4.97;;
46607;SDS011;32330;51.936;7.184;2023-10-31T07:05:35;5.97;;;4.95;;
46607;SDS011;32330;51.936;7.184;2023-10-31T07:08:03;7.50;;;5.60;;
46607;SDS011;32330;51.936;7.184;2023-10-31T07:10:30;6.22;;;5.60;;
46607;SDS011;32330;51.936;7.184;2023-10-31T07:12:58;5.65;;;5.05;;
46607;SDS011;32330;51.936;7.184;2023-10-31T07:15:25;5.78;;;4.63;;
46607;SDS011;32330;51.936;7.184;2023-10-31T07:17:52;6.60;;;4.93;;
46607;SDS011;32330;51.936;7.184;2023-10-31T07:20:19;8.45;;;5.93;;
46607;SDS011;32330;51.936;7.184;2023-10-31T07:22:47;6.28;;;4.97;;
46607;SDS011;32330;51.936;7.184;2023-10-31T07:25:14;6.75;;;6.13;;
46607;SDS011;32330;51.936;7.184;2023-10-31T07:27:41;6.10;;;5.38;;
46607;SDS011;32330;51.936;7.184;2023-10-31T07:30:09;7.82;;;7.03;;
46607;SDS011;32330;51.936;7.184;2023-10-31T07:32:36;8.05;;;6.13;;
46607;SDS011;32330;51.936;7.184;2023-10-31T07:35:04;7.50;;;6.80;;
46607;SDS011;32330;51.936;7.184;2023-10-31T07:37:32;8.38;;;7.45;;
46607;SDS011;32330;51.936;7.184;2023-10-31T07:40:00;10.18;;;8.15;;
46607;SDS011;32330;51.936;7.184;2023-10-31T07:42:27;9.85;;;7.85;;
46607;SDS011;32330;51.936;7.184;2023-10-31T07:44:54;9.32;;;8.43;;
46607;SDS011;32330;51.936;7.184;2023-10-31T07:47:21;9.80;;;7.80;;
46607;SDS011;32330;51.936;7.184;2023-10-31T07:49:48;9.65;;;7.93;;
46607;SDS011;32330;51.936;7.184;2023-10-31T07:52:15;10.23;;;7.90;;
46607;SDS011;32330;51.936;7.184;2023-10-31T07:54:41;10.15;;;8.77;;
46607;SDS011;32330;51.936;7.184;2023-10-31T07:57:10;13.20;;;9.07;;
46607;SDS011;32330;51.936;7.184;2023-10-31T07:59:37;12.82;;;10.32;;
46607;SDS011;32330;51.936;7.184;2023-10-31T08:02:03;13.75;;;10.48;;
46607;SDS011;32330;51.936;7.184;2023-10-31T08:04:30;12.65;;;11.07;;
46607;SDS011;32330;51.936;7.184;2023-10-31T08:06:57;16.15;;;11.07;;
46607;SDS011;32330;51.936;7.184;2023-10-31T08:09:24;13.77;;;12.18;;
46607;SDS011;32330;51.936;7.184;2023-10-31T08:11:51;15.35;;;13.07;;
46607;SDS011;32330;51.936;7.184;2023-10-31T08:14:20;14.90;;;13.02;;
46607;SDS011;32330;51.936;7.184;2023-10-31T08:16:47;14.25;;;12.85;;
46607;SDS011;32330;51.936;7.184;2023-10-31T08:19:14;20.73;;;17.52;;
46607;SDS011;32330;51.936;7.184;2023-10-31T08:21:41;16.73;;;14.23;;
46607;SDS011;32330;51.936;7.184;2023-10-31T08:24:08;15.20;;;12.98;;
46607;SDS011;32330;51.936;7.184;2023-10-31T08:26:35;15.75;;;14.07;;
46607;SDS011;32330;51.936;7.184;2023-10-31T08:29:02;14.40;;;12.65;;
46607;SDS011;32330;51.936;7.184;2023-10-31T08:31:31;16.75;;;14.48;;
46607;SDS011;32330;51.936;7.184;2023-10-31T08:33:58;14.93;;;13.07;;
46607;SDS011;32330;51.936;7.184;2023-10-31T08:36:25;16.90;;;15.10;;
46607;SDS011;32330;51.936;7.184;2023-10-31T08:38:51;17.83;;;15.52;;
46607;SDS011;32330;51.936;7.184;2023-10-31T08:41:18;15.50;;;13.90;;
46607;SDS011;32330;51.936;7.184;2023-10-31T08:43:46;16.25;;;13.00;;
46607;SDS011;32330;51.936;7.184;2023-10-31T08:46:13;16.42;;;13.63;;
46607;SDS011;32330;51.936;7.184;2023-10-31T08:48:43;15.35;;;13.57;;
46607;SDS011;32330;51.936;7.184;2023-10-31T08:51:10;19.10;;;15.63;;
46607;SDS011;32330;51.936;7.184;2023-10-31T08:53:36;17.92;;;15.32;;
46607;SDS011;32330;51.936;7.184;2023-10-31T08:56:04;17.30;;;13.80;;
46607;SDS011;32330;51.936;7.184;2023-10-31T08:58:31;18.08;;;14.05;;
46607;SDS011;32330;51.936;7.184;2023-10-31T09:00:57;15.88;;;13.50;;
46607;SDS011;32330;51.936;7.184;2023-10-31T09:03:24;17.00;;;13.60;;
46607;SDS011;32330;51.936;7.184;2023-10-31T09:05:53;15.68;;;13.02;;
46607;SDS011;32330;51.936;7.184;2023-10-31T09:08:20;15.50;;;13.95;;
46607;SDS011;32330;51.936;7.184;2023-10-31T09:10:46;15.60;;;13.70;;
46607;SDS011;32330;51.936;7.184;2023-10-31T09:13:13;17.35;;;15.48;;
46607;SDS011;32330;51.936;7.184;2023-10-31T09:15:40;16.05;;;14.00;;
46607;SDS011;32330;51.936;7.184;2023-10-31T09:18:07;14.73;;;13.07;;
46607;SDS011;32330;51.936;7.184;2023-10-31T09:20:34;17.15;;;14.07;;
46607;SDS011;32330;51.936;7.184;2023-10-31T09:23:02;14.63;;;12.70;;
46607;SDS011;32330;51.936;7.184;2023-10-31T09:25:30;15.52;;;13.80;;
46607;SDS011;32330;51.936;7.184;2023-10-31T09:27:57;14.60;;;12.93;;
46607;SDS011;32330;51.936;7.184;2023-10-31T09:30:25;14.20;;;12.65;;
46607;SDS011;32330;51.936;7.184;2023-10-31T09:32:52;15.02;;;12.63;;
46607;SDS011;32330;51.936;7.184;2023-10-31T09:35:18;15.07;;;13.57;;
46607;SDS011;32330;51.936;7.184;2023-10-31T09:37:45;14.23;;;12.82;;
46607;SDS011;32330;51.936;7.184;2023-10-31T09:40:15;13.27;;;11.95;;
46607;SDS011;32330;51.936;7.184;2023-10-31T09:42:43;13.63;;;12.32;;
46607;SDS011;32330;51.936;7.184;2023-10-31T09:45:11;13.80;;;12.40;;
46607;SDS011;32330;51.936;7.184;2023-10-31T09:47:39;14.80;;;13.30;;
46607;SDS011;32330;51.936;7.184;2023-10-31T09:50:07;14.02;;;12.63;;
46607;SDS011;32330;51.936;7.184;2023-10-31T09:52:35;14.00;;;12.60;;
46607;SDS011;32330;51.936;7.184;2023-10-31T09:55:02;13.88;;;12.52;;
46607;SDS011;32330;51.936;7.184;2023-10-31T09:57:31;13.32;;;12.07;;
46607;SDS011;32330;51.936;7.184;2023-10-31T09:59:59;15.85;;;12.32;;
46607;SDS011;32330;51.936;7.184;2023-10-31T10:02:26;11.88;;;10.77;;
46607;SDS011;32330;51.936;7.184;2023-10-31T10:04:53;13.35;;;12.02;;
46607;SDS011;32330;51.936;7.184;2023-10-31T10:07:20;13.30;;;11.98;;
46607;SDS011;32330;51.936;7.184;2023-10-31T10:09:47;12.40;;;11.10;;
46607;SDS011;32330;51.936;7.184;2023-10-31T10:12:14;12.55;;;11.30;;
46607;SDS011;32330;51.936;7.184;2023-10-31T10:14:45;11.75;;;10.65;;
46607;SDS011;32330;51.936;7.184;2023-10-31T10:17:14;13.88;;;11.98;;
46607;SDS011;32330;51.936;7.184;2023-10-31T10:19:42;12.70;;;11.27;;
46607;SDS011;32330;51.936;7.184;2023-10-31T10:22:09;14.25;;;10.57;;
46607;SDS011;32330;51.936;7.184;2023-10-31T10:24:39;13.30;;;11.70;;
46607;SDS011;32330;51.936;7.184;2023-10-31T10:27:06;12.10;;;10.70;;
46607;SDS011;32330;51.936;7.184;2023-10-31T10:29:34;12.45;;;11.27;;
46607;SDS011;32330;51.936;7.184;2023-10-31T10:32:06;11.50;;;10.30;;
46607;SDS011;32330;51.936;7.184;2023-10-31T10:34:34;15.52;;;11.73;;
46607;SDS011;32330;51.936;7.184;2023-10-31T10:37:03;14.20;;;11.30;;
46607;SDS011;32330;51.936;7.184;2023-10-31T10:39:32;12.48;;;10.70;;
46607;SDS011;32330;51.936;7.184;2023-10-31T10:42:01;13.70;;;10.15;;
46607;SDS011;32330;51.936;7.184;2023-10-31T10:44:33;13.45;;;10.73;;
46607;SDS011;32330;51.936;7.184;2023-10-31T10:47:01;13.43;;;10.52;;
46607;SDS011;32330;51.936;7.184;2023-10-31T10:49:33;11.35;;;10.25;;
46607;SDS011;32330;51.936;7.184;2023-10-31T10:52:04;10.43;;;9.32;;
46607;SDS011;32330;51.936;7.184;2023-10-31T10:54:41;10.63;;;9.50;;
46607;SDS011;32330;51.936;7.184;2023-10-31T10:57:14;10.10;;;9.10;;
46607;SDS011;32330;51.936;7.184;2023-10-31T10:59:42;10.63;;;9.35;;
46607;SDS011;32330;51.936;7.184;2023-10-31T11:02:16;10.68;;;9.68;;
46607;SDS011;32330;51.936;7.184;2023-10-31T11:04:45;11.25;;;9.60;;
46607;SDS011;32330;51.936;7.184;2023-10-31T11:07:13;15.07;;;10.48;;
46607;SDS011;32330;51.936;7.184;2023-10-31T11:09:41;12.90;;;10.30;;
46607;SDS011;32330;51.936;7.184;2023-10-31T11:12:09;14.05;;;12.55;;
46607;SDS011;32330;51.936;7.184;2023-10-31T11:14:38;13.02;;;10.43;;
46607;SDS011;32330;51.936;7.184;2023-10-31T11:17:09;12.73;;;10.38;;
46607;SDS011;32330;51.936;7.184;2023-10-31T11:19:45;11.82;;;10.55;;
46607;SDS011;32330;51.936;7.184;2023-10-31T11:22:12;14.23;;;11.60;;
46607;SDS011;32330;51.936;7.184;2023-10-31T11:24:39;13.93;;;11.48;;
46607;SDS011;32330;51.936;7.184;2023-10-31T11:27:08;13.02;;;9.93;;
46607;SDS011;32330;51.936;7.184;2023-10-31T11:29:35;11.65;;;10.07;;
46607;SDS011;32330;51.936;7.184;2023-10-31T11:32:03;10.70;;;9.23;;
46607;SDS011;32330;51.936;7.184;2023-10-31T11:34:34;11.63;;;9.30;;
46607;SDS011;32330;51.936;7.184;2023-10-31T11:37:24;13.32;;;10.15;;
46607;SDS011;32330;51.936;7.184;2023-10-31T11:42:41;13.63;;;10.05;;
46607;SDS011;32330;51.936;7.184;2023-10-31T11:45:08;15.63;;;10.88;;
46607;SDS011;32330;51.936;7.184;2023-10-31T11:47:45;14.48;;;10.77;;
46607;SDS011;32330;51.936;7.184;2023-10-31T11:50:12;11.90;;;9.82;;
46607;SDS011;32330;51.936;7.184;2023-10-31T11:52:41;11.68;;;10.25;;
46607;SDS011;32330;51.936;7.184;2023-10-31T11:55:09;12.27;;;11.00;;
46607;SDS011;32330;51.936;7.184;2023-10-31T11:57:36;16.88;;;11.70;;
46607;SDS011;32330;51.936;7.184;2023-10-31T12:00:04;15.18;;;11.85;;
46607;SDS011;32330;51.936;7.184;2023-10-31T12:02:38;15.77;;;12.45;;
46607;SDS011;32330;51.936;7.184;2023-10-31T12:05:06;14.10;;;12.45;;
46607;SDS011;32330;51.936;7.184;2023-10-31T12:07:42;18.40;;;14.23;;
46607;SDS011;32330;51.936;7.184;2023-10-31T12:10:09;18.10;;;14.05;;
46607;SDS011;32330;51.936;7.184;2023-10-31T12:12:37;19.75;;;13.65;;
46607;SDS011;32330;51.936;7.184;2023-10-31T12:15:04;14.70;;;11.40;;
46607;SDS011;32330;51.936;7.184;2023-10-31T12:17:32;14.40;;;11.98;;
46607;SDS011;32330;51.936;7.184;2023-10-31T12:20:03;14.20;;;12.80;;
46607;SDS011;32330;51.936;7.184;2023-10-31T12:22:32;16.77;;;13.40;;
46607;SDS011;32330;51.936;7.184;2023-10-31T12:25:01;13.80;;;12.40;;
46607;SDS011;32330;51.936;7.184;2023-10-31T12:27:41;16.42;;;13.00;;
46607;SDS011;32330;51.936;7.184;2023-10-31T12:30:09;13.50;;;12.15;;
46607;SDS011;32330;51.936;7.184;2023-10-31T12:32:37;13.05;;;11.68;;
46607;SDS011;32330;51.936;7.184;2023-10-31T12:35:05;15.00;;;11.82;;
46607;SDS011;32330;51.936;7.184;2023-10-31T12:37:33;14.27;;;12.77;;
46607;SDS011;32330;51.936;7.184;2023-10-31T12:40:02;14.20;;;12.65;;
46607;SDS011;32330;51.936;7.184;2023-10-31T12:42:30;15.60;;;13.05;;
46607;SDS011;32330;51.936;7.184;2023-10-31T12:44:58;15.20;;;12.32;;
46607;SDS011;32330;51.936;7.184;2023-10-31T12:47:25;15.30;;;11.95;;
46607;SDS011;32330;51.936;7.184;2023-10-31T12:50:05;14.05;;;11.10;;
46607;SDS011;32330;51.936;7.184;2023-10-31T12:52:49;16.02;;;11.55;;
46607;SDS011;32330;51.936;7.184;2023-10-31T12:55:19;12.93;;;10.43;;
46607;SDS011;32330;51.936;7.184;2023-10-31T12:57:46;10.45;;;9.27;;
46607;SDS011;32330;51.936;7.184;2023-10-31T13:00:15;13.05;;;9.65;;
46607;SDS011;32330;51.936;7.184;2023-10-31T13:02:49;11.15;;;9.20;;
46607;SDS011;32330;51.936;7.184;2023-10-31T13:05:17;12.45;;;9.13;;
46607;SDS011;32330;51.936;7.184;2023-10-31T13:07:47;15.80;;;10.63;;
46607;SDS011;32330;51.936;7.184;2023-10-31T13:10:16;12.18;;;9.00;;
46607;SDS011;32330;51.936;7.184;2023-10-31T13:12:45;14.85;;;9.73;;
46607;SDS011;32330;51.936;7.184;2023-10-31T13:15:12;13.07;;;9.77;;
46607;SDS011;32330;51.936;7.184;2023-10-31T13:17:40;11.30;;;8.43;;
46607;SDS011;32330;51.936;7.184;2023-10-31T13:20:09;12.90;;;9.48;;
46607;SDS011;32330;51.936;7.184;2023-10-31T13:22:36;11.18;;;8.52;;
46607;SDS011;32330;51.936;7.184;2023-10-31T13:25:03;12.38;;;8.27;;
46607;SDS011;32330;51.936;7.184;2023-10-31T13:27:32;12.05;;;8.95;;
46607;SDS011;32330;51.936;7.184;2023-10-31T13:30:01;11.20;;;9.10;;
46607;SDS011;32330;51.936;7.184;2023-10-31T13:32:29;12.48;;;8.07;;
46607;SDS011;32330;51.936;7.184;2023-10-31T13:34:56;10.00;;;7.88;;
46607;SDS011;32330;51.936;7.184;2023-10-31T13:37:24;16.08;;;8.45;;
46607;SDS011;32330;51.936;7.184;2023-10-31T13:39:51;13.95;;;8.30;;
46607;SDS011;32330;51.936;7.184;2023-10-31T13:42:18;11.70;;;8.50;;
46607;SDS011;32330;51.936;7.184;2023-10-31T13:44:45;12.88;;;8.35;;
46607;SDS011;32330;51.936;7.184;2023-10-31T13:47:14;10.25;;;7.70;;
46607;SDS011;32330;51.936;7.184;2023-10-31T13:49:41;12.95;;;8.20;;
46607;SDS011;32330;51.936;7.184;2023-10-31T13:52:07;11.60;;;7.30;;
46607;SDS011;32330;51.936;7.184;2023-10-31T13:54:34;9.88;;;7.43;;
46607;SDS011;32330;51.936;7.184;2023-10-31T13:57:01;11.60;;;6.78;;
46607;SDS011;32330;51.936;7.184;2023-10-31T13:59:29;14.32;;;8.07;;
46607;SDS011;32330;51.936;7.184;2023-10-31T14:01:56;13.32;;;6.80;;
46607;SDS011;32330;51.936;7.184;2023-10-31T14:04:25;8.57;;;6.30;;
46607;SDS011;32330;51.936;7.184;2023-10-31T14:06:54;11.05;;;7.25;;
46607;SDS011;32330;51.936;7.184;2023-10-31T14:09:21;12.32;;;7.40;;
46607;SDS011;32330;51.936;7.184;2023-10-31T14:11:48;10.73;;;6.78;;
46607;SDS011;32330;51.936;7.184;2023-10-31T14:14:15;11.02;;;6.53;;
46607;SDS011;32330;51.936;7.184;2023-10-31T14:16:42;9.73;;;6.95;;
46607;SDS011;32330;51.936;7.184;2023-10-31T14:19:10;9.38;;;7.15;;
46607;SDS011;32330;51.936;7.184;2023-10-31T14:21:40;10.80;;;6.32;;
46607;SDS011;32330;51.936;7.184;2023-10-31T14:24:07;13.93;;;7.03;;
46607;SDS011;32330;51.936;7.184;2023-10-31T14:26:34;10.20;;;7.50;;
46607;SDS011;32330;51.936;7.184;2023-10-31T14:29:02;13.15;;;6.75;;
46607;SDS011;32330;51.936;7.184;2023-10-31T14:31:29;12.23;;;7.00;;
46607;SDS011;32330;51.936;7.184;2023-10-31T14:33:56;9.85;;;6.47;;
46607;SDS011;32330;51.936;7.184;2023-10-31T14:36:23;10.60;;;6.75;;
46607;SDS011;32330;51.936;7.184;2023-10-31T14:38:51;10.35;;;6.35;;
46607;SDS011;32330;51.936;7.184;2023-10-31T14:41:18;12.93;;;5.93;;
46607;SDS011;32330;51.936;7.184;2023-10-31T14:43:45;8.70;;;5.15;;
46607;SDS011;32330;51.936;7.184;2023-10-31T14:46:12;9.07;;;4.90;;
46607;SDS011;32330;51.936;7.184;2023-10-31T14:48:39;10.18;;;5.60;;
46607;SDS011;32330;51.936;7.184;2023-10-31T14:51:06;11.93;;;5.78;;
46607;SDS011;32330;51.936;7.184;2023-10-31T14:53:33;8.57;;;4.80;;
46607;SDS011;32330;51.936;7.184;2023-10-31T14:56:02;11.45;;;4.93;;
46607;SDS011;32330;51.936;7.184;2023-10-31T14:58:31;11.20;;;5.68;;
46607;SDS011;32330;51.936;7.184;2023-10-31T15:00:58;9.40;;;5.50;;
46607;SDS011;32330;51.936;7.184;2023-10-31T15:03:25;11.45;;;5.55;;
46607;SDS011;32330;51.936;7.184;2023-10-31T15:05:52;12.85;;;5.75;;
46607;SDS011;32330;51.936;7.184;2023-10-31T15:08:19;10.25;;;5.78;;
46607;SDS011;32330;51.936;7.184;2023-10-31T15:10:46;12.77;;;6.60;;
46607;SDS011;32330;51.936;7.184;2023-10-31T15:13:14;8.32;;;5.70;;
46607;SDS011;32330;51.936;7.184;2023-10-31T15:15:41;12.93;;;5.75;;
46607;SDS011;32330;51.936;7.184;2023-10-31T15:18:08;12.65;;;5.85;;
46607;SDS011;32330;51.936;7.184;2023-10-31T15:20:35;9.32;;;5.55;;
46607;SDS011;32330;51.936;7.184;2023-10-31T15:23:02;7.40;;;5.53;;
46607;SDS011;32330;51.936;7.184;2023-10-31T15:25:29;14.13;;;6.45;;
46607;SDS011;32330;51.936;7.184;2023-10-31T15:27:56;11.00;;;6.32;;
46607;SDS011;32330;51.936;7.184;2023-10-31T15:30:24;13.00;;;6.32;;
46607;SDS011;32330;51.936;7.184;2023-10-31T15:32:51;6.63;;;5.60;;
46607;SDS011;32330;51.936;7.184;2023-10-31T15:35:18;8.40;;;5.18;;
46607;SDS011;32330;51.936;7.184;2023-10-31T15:37:45;11.63;;;6.40;;
46607;SDS011;32330;51.936;7.184;2023-10-31T15:40:14;8.40;;;5.32;;
46607;SDS011;32330;51.936;7.184;2023-10-31T15:42:41;11.75;;;5.88;;
46607;SDS011;32330;51.936;7.184;2023-10-31T15:45:08;10.00;;;5.45;;
46607;SDS011;32330;51.936;7.184;2023-10-31T15:47:37;8.73;;;5.45;;
46607;SDS011;32330;51.936;7.184;2023-10-31T15:50:04;12.50;;;7.22;;
46607;SDS011;32330;51.936;7.184;2023-10-31T15:52:32;10.38;;;5.53;;
46607;SDS011;32330;51.936;7.184;2023-10-31T15:54:59;9.20;;;5.35;;
46607;SDS011;32330;51.936;7.184;2023-10-31T15:57:26;7.95;;;5.97;;
46607;SDS011;32330;51.936;7.184;2023-10-31T15:59:52;10.65;;;5.90;;
46607;SDS011;32330;51.936;7.184;2023-10-31T16:02:19;8.57;;;5.43;;
46607;SDS011;32330;51.936;7.184;2023-10-31T16:04:48;12.60;;;6.32;;
46607;SDS011;32330;51.936;7.184;2023-10-31T16:07:14;8.75;;;5.30;;
46607;SDS011;32330;51.936;7.184;2023-10-31T16:09:42;9.82;;;6.53;;
46607;SDS011;32330;51.936;7.184;2023-10-31T16:12:09;13.13;;;6.50;;
46607;SDS011;32330;51.936;7.184;2023-10-31T16:14:36;11.35;;;6.47;;
46607;SDS011;32330;51.936;7.184;2023-10-31T16:17:03;11.32;;;7.85;;
46607;SDS011;32330;51.936;7.184;2023-10-31T16:19:30;10.20;;;7.30;;
46607;SDS011;32330;51.936;7.184;2023-10-31T16:21:58;9.32;;;8.02;;
46607;SDS011;32330;51.936;7.184;2023-10-31T16:24:27;10.75;;;7.28;;
46607;SDS011;32330;51.936;7.184;2023-10-31T16:26:54;10.00;;;7.05;;
46607;SDS011;32330;51.936;7.184;2023-10-31T16:29:20;9.77;;;7.57;;
46607;SDS011;32330;51.936;7.184;2023-10-31T16:31:47;9.57;;;6.90;;
46607;SDS011;32330;51.936;7.184;2023-10-31T16:34:14;11.85;;;7.32;;
46607;SDS011;32330;51.936;7.184;2023-10-31T16:36:42;9.18;;;7.63;;
46607;SDS011;32330;51.936;7.184;2023-10-31T16:39:10;10.27;;;7.47;;
46607;SDS011;32330;51.936;7.184;2023-10-31T16:41:37;16.42;;;7.82;;
46607;SDS011;32330;51.936;7.184;2023-10-31T16:44:05;10.38;;;7.75;;
46607;SDS011;32330;51.936;7.184;2023-10-31T16:46:32;9.13;;;7.65;;
46607;SDS011;32330;51.936;7.184;2023-10-31T16:48:59;9.45;;;8.02;;
46607;SDS011;32330;51.936;7.184;2023-10-31T16:51:26;10.80;;;8.73;;
46607;SDS011;32330;51.936;7.184;2023-10-31T16:53:54;14.40;;;9.50;;
46607;SDS011;32330;51.936;7.184;2023-10-31T16:56:23;13.07;;;10.00;;
46607;SDS011;32330;51.936;7.184;2023-10-31T16:58:50;12.77;;;10.10;;
46607;SDS011;32330;51.936;7.184;2023-10-31T17:01:17;13.15;;;11.30;;
46607;SDS011;32330;51.936;7.184;2023-10-31T17:03:44;12.23;;;10.90;;
46607;SDS011;32330;51.936;7.184;2023-10-31T17:06:11;11.57;;;8.90;;
46607;SDS011;32330;51.936;7.184;2023-10-31T17:08:40;12.35;;;10.30;;
46607;SDS011;32330;51.936;7.184;2023-10-31T17:11:08;12.38;;;10.95;;
46607;SDS011;32330;51.936;7.184;2023-10-31T17:13:36;14.90;;;11.52;;
46607;SDS011;32330;51.936;7.184;2023-10-31T17:16:03;10.88;;;9.38;;
46607;SDS011;32330;51.936;7.184;2023-10-31T17:18:32;11.23;;;10.02;;
46607;SDS011;32330;51.936;7.184;2023-10-31T17:20:59;17.63;;;11.55;;
46607;SDS011;32330;51.936;7.184;2023-10-31T17:23:26;12.15;;;8.90;;
46607;SDS011;32330;51.936;7.184;2023-10-31T17:25:55;9.95;;;8.93;;
46607;SDS011;32330;51.936;7.184;2023-10-31T17:28:22;11.07;;;7.85;;
46607;SDS011;32330;51.936;7.184;2023-10-31T17:30:50;12.30;;;9.38;;
46607;SDS011;32330;51.936;7.184;2023-10-31T17:33:17;10.52;;;8.15;;
46607;SDS011;32330;51.936;7.184;2023-10-31T17:35:44;14.02;;;11.35;;
46607;SDS011;32330;51.936;7.184;2023-10-31T17:38:11;13.70;;;10.55;;
46607;SDS011;32330;51.936;7.184;2023-10-31T17:40:40;9.20;;;7.35;;
46607;SDS011;32330;51.936;7.184;2023-10-31T17:43:07;10.13;;;9.15;;
46607;SDS011;32330;51.936;7.184;2023-10-31T17:45:33;8.02;;;5.82;;
46607;SDS011;32330;51.936;7.184;2023-10-31T17:48:02;6.93;;;4.40;;
46607;SDS011;32330;51.936;7.184;2023-10-31T17:50:29;7.38;;;4.35;;
46607;SDS011;32330;51.936;7.184;2023-10-31T17:52:57;7.50;;;4.45;;
46607;SDS011;32330;51.936;7.184;2023-10-31T17:55:24;8.48;;;3.97;;
46607;SDS011;32330;51.936;7.184;2023-10-31T17:57:51;9.57;;;4.03;;
46607;SDS011;32330;51.936;7.184;2023-10-31T18:00:18;7.47;;;3.75;;
46607;SDS011;32330;51.936;7.184;2023-10-31T18:02:45;5.57;;;3.58;;
46607;SDS011;32330;51.936;7.184;2023-10-31T18:05:14;5.63;;;3.90;;
46607;SDS011;32330;51.936;7.184;2023-10-31T18:07:41;5.00;;;4.00;;
46607;SDS011;32330;51.936;7.184;2023-10-31T18:10:09;5.60;;;4.22;;
46607;SDS011;32330;51.936;7.184;2023-10-31T18:12:36;6.43;;;3.53;;
46607;SDS011;32330;51.936;7.184;2023-10-31T18:15:03;5.22;;;3.58;;
46607;SDS011;32330;51.936;7.184;2023-10-31T18:17:31;6.30;;;4.03;;
46607;SDS011;32330;51.936;7.184;2023-10-31T18:19:58;9.27;;;4.28;;
46607;SDS011;32330;51.936;7.184;2023-10-31T18:22:27;4.03;;;3.63;;
46607;SDS011;32330;51.936;7.184;2023-10-31T18:24:54;5.80;;;4.32;;
46607;SDS011;32330;51.936;7.184;2023-10-31T18:27:21;5.72;;;4.18;;
46607;SDS011;32330;51.936;7.184;2023-10-31T18:29:50;6.63;;;3.95;;
46607;SDS011;32330;51.936;7.184;2023-10-31T18:32:18;7.25;;;4.57;;
46607;SDS011;32330;51.936;7.184;2023-10-31T18:34:46;7.10;;;4.20;;
46607;SDS011;32330;51.936;7.184;2023-10-31T18:37:13;7.63;;;4.47;;
46607;SDS011;32330;51.936;7.184;2023-10-31T18:39:42;8.13;;;4.68;;
46607;SDS011;32330;51.936;7.184;2023-10-31T18:42:09;8.00;;;4.68;;
46607;SDS011;32330;51.936;7.184;2023-10-31T18:44:37;6.78;;;5.10;;
46607;SDS011;32330;51.936;7.184;2023-10-31T18:47:04;9.13;;;5.15;;
46607;SDS011;32330;51.936;7.184;2023-10-31T18:49:31;8.57;;;5.45;;
46607;SDS011;32330;51.936;7.184;2023-10-31T18:51:58;8.73;;;6.68;;
46607;SDS011;32330;51.936;7.184;2023-10-31T18:54:25;9.30;;;5.60;;
46607;SDS011;32330;51.936;7.184;2023-10-31T18:56:53;9.30;;;6.03;;
46607;SDS011;32330;51.936;7.184;2023-10-31T18:59:22;8.67;;;5.57;;
46607;SDS011;32330;51.936;7.184;2023-10-31T19:01:49;6.68;;;5.85;;
46607;SDS011;32330;51.936;7.184;2023-10-31T19:04:20;8.80;;;5.93;;
46607;SDS011;32330;51.936;7.184;2023-10-31T19:06:49;8.43;;;6.20;;
46607;SDS011;32330;51.936;7.184;2023-10-31T19:09:16;9.95;;;8.95;;
46607;SDS011;32330;51.936;7.184;2023-10-31T19:11:44;7.40;;;6.70;;
46607;SDS011;32330;51.936;7.184;2023-10-31T19:14:13;9.20;;;6.15;;
46607;SDS011;32330;51.936;7.184;2023-10-31T19:16:40;9.70;;;6.60;;
46607;SDS011;32330;51.936;7.184;2023-10-31T19:19:07;8.15;;;7.13;;
46607;SDS011;32330;51.936;7.184;2023-10-31T19:21:34;10.70;;;7.85;;
46607;SDS011;32330;51.936;7.184;2023-10-31T19:24:01;9.52;;;8.05;;
46607;SDS011;32330;51.936;7.184;2023-10-31T19:26:28;7.75;;;6.70;;